EST,Max TemperatureF,Mean TemperatureF,Min TemperatureF,Max Dew PointF,MeanDew PointF,Min DewpointF,Max Humidity, Mean Humidity, Min Humidity, Max Sea Level PressureIn, Mean Sea Level PressureIn, Min Sea Level PressureIn, Max VisibilityMiles, Mean VisibilityMiles, Min VisibilityMiles, Max Wind SpeedMPH, Mean Wind SpeedMPH, Max Gust SpeedMPH,PrecipitationIn, CloudCover, Events, WindDirDegrees
2012-11-1,47,44,41,43,38,34,89,80,70,29.57,29.53,29.49,10,10,10,10,3,14,0.08,8,Rain,210
2012-11-2,47,43,38,39,35,32,89,77,65,29.70,29.59,29.55,10,10,8,15,6,21,0.01,8,Rain,272
2012-11-3,44,40,36,34,31,26,85,69,53,29.89,29.78,29.68,10,10,10,16,7,20,0.00,8,,272
2012-11-4,41,38,34,29,28,26,75,67,59,30.00,29.95,29.90,10,10,10,14,6,17,0.00,8,,291
2012-11-5,38,31,23,25,20,14,69,55,40,30.16,30.06,29.97,10,10,9,13,5,17,T,6,,328
2012-11-6,40,29,17,19,16,13,84,61,37,30.24,30.19,30.15,10,10,10,12,2,14,0.00,0,,48
2012-11-7,37,33,28,21,16,8,61,45,29,30.16,30.04,29.90,10,10,10,14,6,20,0.00,3,,360
2012-11-8,36,34,32,29,24,20,82,71,59,29.93,29.87,29.81,10,9,4,20,10,30,T,8,Snow,331
2012-11-9,47,38,29,35,25,19,79,57,34,30.14,30.04,29.91,10,10,10,10,6,15,0.00,3,,284
2012-11-10,51,41,31,35,32,28,89,65,41,30.40,30.29,30.15,10,9,4,13,2,20,0.00,4,,320
2012-11-11,67,55,43,41,37,31,63,52,40,30.42,30.39,30.35,10,10,9,15,4,23,T,4,Rain,157
2012-11-12,69,58,46,52,43,37,71,54,37,30.40,30.29,30.10,10,10,10,28,10,37,0.00,1,,174
2012-11-13,64,48,31,53,35,24,96,80,63,30.47,30.29,30.04,10,7,1,12,6,16,0.69,8,Rain-Snow,263
2012-11-14,43,32,21,25,23,20,92,69,45,30.58,30.52,30.47,10,10,10,10,2,15,0.00,0,,310
2012-11-15,40,30,19,25,22,17,92,70,48,30.50,30.41,30.32,10,10,10,6,1,8,0.00,0,,245
2012-11-16,39,30,20,27,22,17,92,76,59,30.49,30.39,30.33,10,10,6,6,1,7,0.00,0,,235
2012-11-17,44,31,18,28,23,16,92,71,49,30.69,30.62,30.49,10,9,5,9,1,14,0.00,1,,263
2012-11-18,49,34,18,28,21,13,96,60,23,30.73,30.66,30.61,10,9,5,8,1,10,0.00,0,,160
2012-11-19,49,35,20,26,22,19,92,62,31,30.58,30.44,30.27,10,10,6,6,1,8,0.00,0,,127
2012-11-20,47,34,21,27,24,19,92,69,45,30.26,30.19,30.14,10,10,10,5,1,5,0.00,0,,330
2012-11-21,52,39,26,27,24,21,92,61,30,30.27,30.22,30.17,10,10,8,8,1,10,0.00,0,,202
2012-11-22,55,39,23,31,26,21,88,63,38,30.29,30.21,30.10,10,10,8,5,0,7,0.00,0,,345
2012-11-23,60,43,26,39,29,23,92,60,28,30.07,29.83,29.61,10,10,10,14,4,18,T,3,Rain,210
2012-11-24,48,39,29,33,20,15,71,58,44,29.73,29.66,29.60,10,10,10,22,11,32,T,6,,284
2012-11-25,33,29,24,25,20,13,78,64,50,29.87,29.81,29.73,10,10,4,18,7,30,T,5,Snow,258
2012-11-26,41,34,27,27,24,21,85,65,45,30.23,30.00,29.83,10,8,2,16,6,23,T,6,Snow,244
2012-11-27,36,29,21,30,26,19,92,78,64,30.29,30.25,30.21,10,6,2,5,1,5,0.01,6,Snow,244
2012-11-28,37,30,23,27,22,17,92,70,47,30.23,30.18,30.13,10,9,4,10,3,16,T,8,Snow,252
2012-11-29,42,36,30,26,23,16,85,60,34,30.25,30.19,30.14,10,10,4,17,6,24,T,6,Snow,251
2012-11-30,40,32,24,26,14,7,78,59,39,30.50,30.41,30.23,10,10,10,16,3,23,0.00,8,,338